sensor_id;sensor_type;location;lat;lon;timestamp;P1;durP1;ratioP1;P2;durP2;ratioP2
7295;SDS011;40758;54.038;11.684;2023-06-10T00:02:02;5.28;;;1.52;;
7295;SDS011;40758;54.038;11.684;2023-06-10T00:04:30;6.68;;;1.63;;
7295;SDS011;40758;54.038;11.684;2023-06-10T00:06:57;6.68;;;1.92;;
7295;SDS011;40758;54.038;11.684;2023-06-10T00:09:23;4.75;;;2.28;;
7295;SDS011;40758;54.038;11.684;2023-06-10T00:11:50;5.47;;;2.75;;
7295;SDS011;40758;54.038;11.684;2023-06-10T00:14:17;6.57;;;2.47;;
7295;SDS011;40758;54.038;11.684;2023-06-10T00:16:44;8.98;;;3.08;;
7295;SDS011;40758;54.038;11.684;2023-06-10T00:19:11;8.07;;;1.88;;
7295;SDS011;40758;54.038;11.684;2023-06-10T00:21:40;6.55;;;2.53;;
7295;SDS011;40758;54.038;11.684;2023-06-10T00:24:07;7.72;;;2.63;;
7295;SDS011;40758;54.038;11.684;2023-06-10T00:26:40;9.00;;;2.33;;
7295;SDS011;40758;54.038;11.684;2023-06-10T00:29:07;7.28;;;2.08;;
7295;SDS011;40758;54.038;11.684;2023-06-10T00:31:35;7.60;;;1.70;;
7295;SDS011;40758;54.038;11.684;2023-06-10T00:34:06;5.40;;;2.45;;
7295;SDS011;40758;54.038;11.684;2023-06-10T00:36:34;6.43;;;1.63;;
7295;SDS011;40758;54.038;11.684;2023-06-10T00:41:30;7.32;;;2.38;;
7295;SDS011;40758;54.038;11.684;2023-06-10T00:43:57;6.75;;;2.08;;
7295;SDS011;40758;54.038;11.684;2023-06-10T00:46:24;6.45;;;2.08;;
7295;SDS011;40758;54.038;11.684;2023-06-10T00:48:53;5.72;;;2.22;;
7295;SDS011;40758;54.038;11.684;2023-06-10T00:51:20;8.70;;;2.58;;
7295;SDS011;40758;54.038;11.684;2023-06-10T00:53:48;6.97;;;3.03;;
7295;SDS011;40758;54.038;11.684;2023-06-10T00:56:16;7.80;;;2.15;;
7295;SDS011;40758;54.038;11.684;2023-06-10T00:58:42;6.88;;;1.60;;
7295;SDS011;40758;54.038;11.684;2023-06-10T01:01:09;6.03;;;1.48;;
7295;SDS011;40758;54.038;11.684;2023-06-10T01:03:39;6.65;;;1.52;;
7295;SDS011;40758;54.038;11.684;2023-06-10T01:06:10;7.00;;;1.52;;
7295;SDS011;40758;54.038;11.684;2023-06-10T01:08:55;5.60;;;1.50;;
7295;SDS011;40758;54.038;11.684;2023-06-10T01:11:29;3.53;;;0.80;;
7295;SDS011;40758;54.038;11.684;2023-06-10T01:14:05;7.97;;;2.25;;
7295;SDS011;40758;54.038;11.684;2023-06-10T01:16:34;7.35;;;1.90;;
7295;SDS011;40758;54.038;11.684;2023-06-10T01:19:05;5.43;;;1.60;;
7295;SDS011;40758;54.038;11.684;2023-06-10T01:21:33;7.25;;;1.63;;
7295;SDS011;40758;54.038;11.684;2023-06-10T01:24:01;5.57;;;1.70;;
7295;SDS011;40758;54.038;11.684;2023-06-10T01:26:29;5.70;;;2.13;;
7295;SDS011;40758;54.038;11.684;2023-06-10T01:28:59;6.20;;;1.35;;
7295;SDS011;40758;54.038;11.684;2023-06-10T01:34:22;5.47;;;1.73;;
7295;SDS011;40758;54.038;11.684;2023-06-10T01:36:51;12.25;;;1.70;;
7295;SDS011;40758;54.038;11.684;2023-06-10T01:39:22;4.75;;;1.08;;
7295;SDS011;40758;54.038;11.684;2023-06-10T01:41:51;5.03;;;1.38;;
7295;SDS011;40758;54.038;11.684;2023-06-10T01:44:19;5.03;;;1.77;;
7295;SDS011;40758;54.038;11.684;2023-06-10T01:46:49;6.57;;;1.20;;
7295;SDS011;40758;54.038;11.684;2023-06-10T01:49:16;6.32;;;1.65;;
7295;SDS011;40758;54.038;11.684;2023-06-10T01:51:42;6.30;;;2.13;;
7295;SDS011;40758;54.038;11.684;2023-06-10T01:54:09;5.43;;;1.55;;
7295;SDS011;40758;54.038;11.684;2023-06-10T01:56:36;5.97;;;1.73;;
7295;SDS011;40758;54.038;11.684;2023-06-10T01:59:05;4.13;;;1.52;;
7295;SDS011;40758;54.038;11.684;2023-06-10T02:01:33;5.70;;;1.65;;
7295;SDS011;40758;54.038;11.684;2023-06-10T02:04:00;8.23;;;1.73;;
7295;SDS011;40758;54.038;11.684;2023-06-10T02:06:26;4.00;;;1.02;;
7295;SDS011;40758;54.038;11.684;2023-06-10T02:08:53;6.85;;;2.03;;
7295;SDS011;40758;54.038;11.684;2023-06-10T02:11:20;4.30;;;1.52;;
7295;SDS011;40758;54.038;11.684;2023-06-10T02:13:46;5.82;;;1.83;;
7295;SDS011;40758;54.038;11.684;2023-06-10T02:16:13;7.95;;;1.17;;
7295;SDS011;40758;54.038;11.684;2023-06-10T02:18:41;6.65;;;2.13;;
7295;SDS011;40758;54.038;11.684;2023-06-10T02:21:09;5.82;;;1.20;;
7295;SDS011;40758;54.038;11.684;2023-06-10T02:23:36;5.80;;;1.88;;
7295;SDS011;40758;54.038;11.684;2023-06-10T02:26:04;6.57;;;1.75;;
7295;SDS011;40758;54.038;11.684;2023-06-10T02:28:30;5.85;;;1.65;;
7295;SDS011;40758;54.038;11.684;2023-06-10T02:30:57;6.30;;;2.33;;
7295;SDS011;40758;54.038;11.684;2023-06-10T02:33:25;6.63;;;1.25;;
7295;SDS011;40758;54.038;11.684;2023-06-10T02:35:51;7.43;;;1.50;;
7295;SDS011;40758;54.038;11.684;2023-06-10T02:38:18;4.88;;;1.02;;
7295;SDS011;40758;54.038;11.684;2023-06-10T02:40:45;6.10;;;1.45;;
7295;SDS011;40758;54.038;11.684;2023-06-10T02:43:11;4.05;;;0.82;;
7295;SDS011;40758;54.038;11.684;2023-06-10T02:45:38;4.93;;;1.83;;
7295;SDS011;40758;54.038;11.684;2023-06-10T02:48:06;5.90;;;0.98;;
7295;SDS011;40758;54.038;11.684;2023-06-10T02:50:33;5.78;;;1.35;;
7295;SDS011;40758;54.038;11.684;2023-06-10T02:53:00;6.80;;;1.52;;
7295;SDS011;40758;54.038;11.684;2023-06-10T02:55:26;6.78;;;1.58;;
7295;SDS011;40758;54.038;11.684;2023-06-10T02:57:54;4.03;;;0.82;;
7295;SDS011;40758;54.038;11.684;2023-06-10T03:00:20;3.83;;;0.88;;
7295;SDS011;40758;54.038;11.684;2023-06-10T03:02:47;5.30;;;1.77;;
7295;SDS011;40758;54.038;11.684;2023-06-10T03:05:15;6.57;;;1.38;;
7295;SDS011;40758;54.038;11.684;2023-06-10T03:07:43;6.75;;;2.03;;
7295;SDS011;40758;54.038;11.684;2023-06-10T03:10:10;5.32;;;2.45;;
7295;SDS011;40758;54.038;11.684;2023-06-10T03:12:37;7.03;;;0.85;;
7295;SDS011;40758;54.038;11.684;2023-06-10T03:15:04;2.40;;;0.85;;
7295;SDS011;40758;54.038;11.684;2023-06-10T03:17:31;5.15;;;1.50;;
7295;SDS011;40758;54.038;11.684;2023-06-10T03:19:58;5.38;;;1.45;;
7295;SDS011;40758;54.038;11.684;2023-06-10T03:22:25;5.20;;;1.30;;
7295;SDS011;40758;54.038;11.684;2023-06-10T03:24:52;4.90;;;1.58;;
7295;SDS011;40758;54.038;11.684;2023-06-10T03:27:19;4.70;;;1.38;;
7295;SDS011;40758;54.038;11.684;2023-06-10T03:29:46;5.60;;;1.67;;
7295;SDS011;40758;54.038;11.684;2023-06-10T03:32:13;4.65;;;1.15;;
7295;SDS011;40758;54.038;11.684;2023-06-10T03:34:40;7.63;;;2.63;;
7295;SDS011;40758;54.038;11.684;2023-06-10T03:37:11;5.78;;;1.63;;
7295;SDS011;40758;54.038;11.684;2023-06-10T03:39:38;4.95;;;1.95;;
7295;SDS011;40758;54.038;11.684;2023-06-10T03:42:04;6.25;;;1.60;;
7295;SDS011;40758;54.038;11.684;2023-06-10T03:44:32;5.05;;;1.73;;
7295;SDS011;40758;54.038;11.684;2023-06-10T03:46:58;5.10;;;1.33;;
7295;SDS011;40758;54.038;11.684;2023-06-10T03:49:26;5.10;;;1.60;;
7295;SDS011;40758;54.038;11.684;2023-06-10T03:51:55;6.85;;;0.93;;
7295;SDS011;40758;54.038;11.684;2023-06-10T03:54:22;3.60;;;1.27;;
7295;SDS011;40758;54.038;11.684;2023-06-10T03:56:49;4.97;;;1.67;;
7295;SDS011;40758;54.038;11.684;2023-06-10T03:59:15;5.95;;;1.65;;
7295;SDS011;40758;54.038;11.684;2023-06-10T04:01:43;7.03;;;2.17;;
7295;SDS011;40758;54.038;11.684;2023-06-10T04:04:11;3.13;;;1.27;;
7295;SDS011;40758;54.038;11.684;2023-06-10T04:06:42;5.22;;;1.85;;
7295;SDS011;40758;54.038;11.684;2023-06-10T04:09:12;5.97;;;1.35;;
7295;SDS011;40758;54.038;11.684;2023-06-10T04:11:39;5.22;;;1.38;;
7295;SDS011;40758;54.038;11.684;2023-06-10T04:14:07;6.07;;;1.15;;
7295;SDS011;40758;54.038;11.684;2023-06-10T04:16:34;3.65;;;0.90;;
7295;SDS011;40758;54.038;11.684;2023-06-10T04:19:01;5.10;;;1.58;;
7295;SDS011;40758;54.038;11.684;2023-06-10T04:21:29;4.88;;;0.63;;
7295;SDS011;40758;54.038;11.684;2023-06-10T04:23:55;6.32;;;2.15;;
7295;SDS011;40758;54.038;11.684;2023-06-10T04:26:22;4.13;;;1.20;;
7295;SDS011;40758;54.038;11.684;2023-06-10T04:28:49;5.95;;;0.70;;
7295;SDS011;40758;54.038;11.684;2023-06-10T04:31:16;5.38;;;0.77;;
7295;SDS011;40758;54.038;11.684;2023-06-10T04:33:43;5.07;;;1.00;;
7295;SDS011;40758;54.038;11.684;2023-06-10T04:36:10;5.30;;;1.23;;
7295;SDS011;40758;54.038;11.684;2023-06-10T04:38:38;6.22;;;1.20;;
7295;SDS011;40758;54.038;11.684;2023-06-10T04:41:05;5.03;;;1.05;;
7295;SDS011;40758;54.038;11.684;2023-06-10T04:43:31;3.72;;;1.05;;
7295;SDS011;40758;54.038;11.684;2023-06-10T04:45:58;10.23;;;1.70;;
7295;SDS011;40758;54.038;11.684;2023-06-10T04:48:26;4.30;;;0.93;;
7295;SDS011;40758;54.038;11.684;2023-06-10T04:50:53;5.45;;;1.27;;
7295;SDS011;40758;54.038;11.684;2023-06-10T04:53:20;5.18;;;1.00;;
7295;SDS011;40758;54.038;11.684;2023-06-10T04:55:47;2.88;;;2.35;;
7295;SDS011;40758;54.038;11.684;2023-06-10T04:58:14;4.85;;;1.10;;
7295;SDS011;40758;54.038;11.684;2023-06-10T05:00:41;3.63;;;1.08;;
7295;SDS011;40758;54.038;11.684;2023-06-10T05:03:09;5.93;;;1.02;;
7295;SDS011;40758;54.038;11.684;2023-06-10T05:05:35;4.25;;;1.20;;
7295;SDS011;40758;54.038;11.684;2023-06-10T05:08:02;6.35;;;1.23;;
7295;SDS011;40758;54.038;11.684;2023-06-10T05:10:32;4.85;;;1.27;;
7295;SDS011;40758;54.038;11.684;2023-06-10T05:13:00;5.38;;;1.30;;
7295;SDS011;40758;54.038;11.684;2023-06-10T05:15:27;5.78;;;1.10;;
7295;SDS011;40758;54.038;11.684;2023-06-10T05:17:55;5.20;;;1.65;;
7295;SDS011;40758;54.038;11.684;2023-06-10T05:20:24;4.93;;;0.98;;
7295;SDS011;40758;54.038;11.684;2023-06-10T05:22:51;4.28;;;1.40;;
7295;SDS011;40758;54.038;11.684;2023-06-10T05:25:18;5.15;;;1.50;;
7295;SDS011;40758;54.038;11.684;2023-06-10T05:27:44;4.03;;;1.33;;
7295;SDS011;40758;54.038;11.684;2023-06-10T05:30:11;4.53;;;2.42;;
7295;SDS011;40758;54.038;11.684;2023-06-10T05:32:41;4.97;;;1.60;;
7295;SDS011;40758;54.038;11.684;2023-06-10T05:37:36;11.80;;;1.63;;
7295;SDS011;40758;54.038;11.684;2023-06-10T05:40:03;4.50;;;1.52;;
7295;SDS011;40758;54.038;11.684;2023-06-10T05:42:31;5.85;;;1.88;;
7295;SDS011;40758;54.038;11.684;2023-06-10T05:44:57;5.13;;;1.52;;
7295;SDS011;40758;54.038;11.684;2023-06-10T05:47:24;4.53;;;1.60;;
7295;SDS011;40758;54.038;11.684;2023-06-10T05:49:51;2.80;;;1.73;;
7295;SDS011;40758;54.038;11.684;2023-06-10T05:52:18;4.75;;;1.42;;
7295;SDS011;40758;54.038;11.684;2023-06-10T05:54:45;4.93;;;1.30;;
7295;SDS011;40758;54.038;11.684;2023-06-10T05:57:12;4.75;;;2.30;;
7295;SDS011;40758;54.038;11.684;2023-06-10T05:59:39;6.63;;;1.17;;
7295;SDS011;40758;54.038;11.684;2023-06-10T06:02:05;5.57;;;1.58;;
7295;SDS011;40758;54.038;11.684;2023-06-10T06:04:33;6.15;;;2.15;;
7295;SDS011;40758;54.038;11.684;2023-06-10T06:07:00;4.05;;;1.00;;
7295;SDS011;40758;54.038;11.684;2023-06-10T06:09:27;6.43;;;1.60;;
7295;SDS011;40758;54.038;11.684;2023-06-10T06:11:54;3.35;;;1.40;;
7295;SDS011;40758;54.038;11.684;2023-06-10T06:14:21;4.45;;;1.10;;
7295;SDS011;40758;54.038;11.684;2023-06-10T06:16:48;4.60;;;1.60;;
7295;SDS011;40758;54.038;11.684;2023-06-10T06:19:15;6.47;;;2.30;;
7295;SDS011;40758;54.038;11.684;2023-06-10T06:21:42;6.97;;;1.73;;
7295;SDS011;40758;54.038;11.684;2023-06-10T06:24:09;4.32;;;2.45;;
7295;SDS011;40758;54.038;11.684;2023-06-10T06:26:35;6.70;;;2.38;;
7295;SDS011;40758;54.038;11.684;2023-06-10T06:29:02;4.28;;;1.30;;
7295;SDS011;40758;54.038;11.684;2023-06-10T06:31:30;5.60;;;2.53;;
7295;SDS011;40758;54.038;11.684;2023-06-10T06:33:57;5.10;;;2.40;;
7295;SDS011;40758;54.038;11.684;2023-06-10T06:36:23;5.53;;;2.13;;
7295;SDS011;40758;54.038;11.684;2023-06-10T06:38:50;5.38;;;1.70;;
7295;SDS011;40758;54.038;11.684;2023-06-10T06:41:17;5.22;;;2.22;;
7295;SDS011;40758;54.038;11.684;2023-06-10T06:43:44;5.93;;;2.15;;
7295;SDS011;40758;54.038;11.684;2023-06-10T06:46:10;4.38;;;2.47;;
7295;SDS011;40758;54.038;11.684;2023-06-10T06:48:38;7.10;;;2.97;;
7295;SDS011;40758;54.038;11.684;2023-06-10T06:51:05;5.25;;;1.58;;
7295;SDS011;40758;54.038;11.684;2023-06-10T06:53:32;4.30;;;1.00;;
7295;SDS011;40758;54.038;11.684;2023-06-10T06:55:59;3.92;;;1.70;;
7295;SDS011;40758;54.038;11.684;2023-06-10T06:58:26;4.65;;;1.55;;
7295;SDS011;40758;54.038;11.684;2023-06-10T07:00:53;4.80;;;1.73;;
7295;SDS011;40758;54.038;11.684;2023-06-10T07:03:19;5.43;;;1.63;;
7295;SDS011;40758;54.038;11.684;2023-06-10T07:05:47;5.45;;;1.65;;
7295;SDS011;40758;54.038;11.684;2023-06-10T07:08:14;5.43;;;2.60;;
7295;SDS011;40758;54.038;11.684;2023-06-10T07:10:41;4.60;;;1.50;;
7295;SDS011;40758;54.038;11.684;2023-06-10T07:13:07;5.20;;;2.53;;
7295;SDS011;40758;54.038;11.684;2023-06-10T07:15:34;5.40;;;1.58;;
7295;SDS011;40758;54.038;11.684;2023-06-10T07:18:01;5.57;;;2.28;;
7295;SDS011;40758;54.038;11.684;2023-06-10T07:20:27;7.10;;;2.03;;
7295;SDS011;40758;54.038;11.684;2023-06-10T07:22:54;5.13;;;1.25;;
7295;SDS011;40758;54.038;11.684;2023-06-10T07:25:21;4.38;;;1.77;;
7295;SDS011;40758;54.038;11.684;2023-06-10T07:27:47;8.43;;;1.50;;
7295;SDS011;40758;54.038;11.684;2023-06-10T07:30:14;12.10;;;2.92;;
7295;SDS011;40758;54.038;11.684;2023-06-10T07:32:41;4.65;;;2.08;;
7295;SDS011;40758;54.038;11.684;2023-06-10T07:35:08;8.60;;;3.15;;
7295;SDS011;40758;54.038;11.684;2023-06-10T07:37:38;5.13;;;1.83;;
7295;SDS011;40758;54.038;11.684;2023-06-10T07:40:05;5.75;;;3.03;;
7295;SDS011;40758;54.038;11.684;2023-06-10T07:42:34;4.57;;;2.20;;
7295;SDS011;40758;54.038;11.684;2023-06-10T07:45:02;5.93;;;2.15;;
7295;SDS011;40758;54.038;11.684;2023-06-10T07:47:30;5.47;;;1.73;;
7295;SDS011;40758;54.038;11.684;2023-06-10T07:49:57;9.88;;;2.20;;
7295;SDS011;40758;54.038;11.684;2023-06-10T07:52:23;5.45;;;3.03;;
7295;SDS011;40758;54.038;11.684;2023-06-10T07:54:50;6.00;;;3.65;;
7295;SDS011;40758;54.038;11.684;2023-06-10T07:57:18;4.53;;;2.28;;
7295;SDS011;40758;54.038;11.684;2023-06-10T07:59:45;5.13;;;2.42;;
7295;SDS011;40758;54.038;11.684;2023-06-10T08:02:12;5.63;;;2.47;;
7295;SDS011;40758;54.038;11.684;2023-06-10T08:04:38;5.35;;;2.65;;
7295;SDS011;40758;54.038;11.684;2023-06-10T08:07:05;7.63;;;2.00;;
7295;SDS011;40758;54.038;11.684;2023-06-10T08:09:32;4.50;;;2.08;;
7295;SDS011;40758;54.038;11.684;2023-06-10T08:11:58;5.97;;;3.08;;
7295;SDS011;40758;54.038;11.684;2023-06-10T08:14:26;5.28;;;1.55;;
7295;SDS011;40758;54.038;11.684;2023-06-10T08:16:52;4.93;;;1.85;;
7295;SDS011;40758;54.038;11.684;2023-06-10T08:19:19;5.78;;;2.15;;
7295;SDS011;40758;54.038;11.684;2023-06-10T08:21:46;5.80;;;2.70;;
7295;SDS011;40758;54.038;11.684;2023-06-10T08:24:13;4.95;;;1.92;;
7295;SDS011;40758;54.038;11.684;2023-06-10T08:26:43;5.95;;;2.35;;
7295;SDS011;40758;54.038;11.684;2023-06-10T08:29:11;5.28;;;3.08;;
7295;SDS011;40758;54.038;11.684;2023-06-10T08:31:40;5.57;;;2.40;;
7295;SDS011;40758;54.038;11.684;2023-06-10T08:34:08;6.18;;;1.67;;
7295;SDS011;40758;54.038;11.684;2023-06-10T08:36:35;6.93;;;2.55;;
7295;SDS011;40758;54.038;11.684;2023-06-10T08:39:02;5.70;;;4.43;;
7295;SDS011;40758;54.038;11.684;2023-06-10T08:41:28;6.45;;;3.05;;
7295;SDS011;40758;54.038;11.684;2023-06-10T08:44:03;6.85;;;1.95;;
7295;SDS011;40758;54.038;11.684;2023-06-10T08:46:36;4.63;;;2.80;;
7295;SDS011;40758;54.038;11.684;2023-06-10T08:49:05;6.47;;;2.60;;
7295;SDS011;40758;54.038;11.684;2023-06-10T08:51:34;5.90;;;2.50;;
7295;SDS011;40758;54.038;11.684;2023-06-10T08:54:11;5.50;;;2.95;;
7295;SDS011;40758;54.038;11.684;2023-06-10T08:56:41;7.07;;;2.75;;
7295;SDS011;40758;54.038;11.684;2023-06-10T08:59:09;6.25;;;3.08;;
7295;SDS011;40758;54.038;11.684;2023-06-10T09:01:37;8.15;;;2.40;;
7295;SDS011;40758;54.038;11.684;2023-06-10T09:04:05;5.60;;;2.25;;
7295;SDS011;40758;54.038;11.684;2023-06-10T09:06:32;9.52;;;4.45;;
7295;SDS011;40758;54.038;11.684;2023-06-10T09:09:00;5.70;;;2.22;;
7295;SDS011;40758;54.038;11.684;2023-06-10T09:11:29;4.97;;;1.70;;
7295;SDS011;40758;54.038;11.684;2023-06-10T09:13:56;8.38;;;2.47;;
7295;SDS011;40758;54.038;11.684;2023-06-10T09:16:23;7.50;;;3.05;;
7295;SDS011;40758;54.038;11.684;2023-06-10T09:18:51;6.72;;;2.53;;
7295;SDS011;40758;54.038;11.684;2023-06-10T09:21:22;5.78;;;2.20;;
7295;SDS011;40758;54.038;11.684;2023-06-10T09:23:49;6.80;;;2.83;;
7295;SDS011;40758;54.038;11.684;2023-06-10T09:26:16;6.55;;;2.33;;
7295;SDS011;40758;54.038;11.684;2023-06-10T09:28:49;5.05;;;2.85;;
7295;SDS011;40758;54.038;11.684;2023-06-10T09:31:16;6.43;;;2.40;;
7295;SDS011;40758;54.038;11.684;2023-06-10T09:33:44;5.70;;;2.20;;
7295;SDS011;40758;54.038;11.684;2023-06-10T09:36:11;5.43;;;2.65;;
7295;SDS011;40758;54.038;11.684;2023-06-10T09:38:49;5.45;;;3.03;;
7295;SDS011;40758;54.038;11.684;2023-06-10T09:41:17;6.03;;;3.00;;
7295;SDS011;40758;54.038;11.684;2023-06-10T09:43:44;5.93;;;2.15;;
7295;SDS011;40758;54.038;11.684;2023-06-10T09:46:18;6.47;;;2.45;;
7295;SDS011;40758;54.038;11.684;2023-06-10T09:48:46;10.52;;;2.50;;
7295;SDS011;40758;54.038;11.684;2023-06-10T09:51:14;5.72;;;3.38;;
7295;SDS011;40758;54.038;11.684;2023-06-10T09:53:43;6.93;;;2.30;;
7295;SDS011;40758;54.038;11.684;2023-06-10T09:56:14;5.18;;;2.78;;
7295;SDS011;40758;54.038;11.684;2023-06-10T09:58:41;6.15;;;2.10;;
7295;SDS011;40758;54.038;11.684;2023-06-10T10:01:10;7.38;;;2.85;;
7295;SDS011;40758;54.038;11.684;2023-06-10T10:03:45;6.55;;;2.17;;
7295;SDS011;40758;54.038;11.684;2023-06-10T10:08:46;6.22;;;3.10;;
7295;SDS011;40758;54.038;11.684;2023-06-10T10:11:18;6.97;;;2.75;;
7295;SDS011;40758;54.038;11.684;2023-06-10T10:13:49;6.10;;;3.33;;
7295;SDS011;40758;54.038;11.684;2023-06-10T10:16:19;7.95;;;3.20;;
7295;SDS011;40758;54.038;11.684;2023-06-10T10:18:57;5.57;;;3.00;;
7295;SDS011;40758;54.038;11.684;2023-06-10T10:21:31;6.40;;;2.60;;
7295;SDS011;40758;54.038;11.684;2023-06-10T10:24:05;6.53;;;2.63;;
7295;SDS011;40758;54.038;11.684;2023-06-10T10:26:39;8.35;;;3.17;;
7295;SDS011;40758;54.038;11.684;2023-06-10T10:31:51;4.78;;;2.83;;
7295;SDS011;40758;54.038;11.684;2023-06-10T10:34:37;5.47;;;2.05;;
7295;SDS011;40758;54.038;11.684;2023-06-10T10:37:14;7.15;;;3.65;;
7295;SDS011;40758;54.038;11.684;2023-06-10T10:39:44;5.80;;;3.20;;
7295;SDS011;40758;54.038;11.684;2023-06-10T10:42:11;6.47;;;3.83;;
7295;SDS011;40758;54.038;11.684;2023-06-10T10:44:39;5.32;;;2.33;;
7295;SDS011;40758;54.038;11.684;2023-06-10T10:47:09;5.93;;;2.53;;
7295;SDS011;40758;54.038;11.684;2023-06-10T10:49:37;5.10;;;2.42;;
7295;SDS011;40758;54.038;11.684;2023-06-10T10:52:04;5.78;;;3.53;;
7295;SDS011;40758;54.038;11.684;2023-06-10T10:54:37;6.03;;;2.60;;
7295;SDS011;40758;54.038;11.684;2023-06-10T11:05:03;11.07;;;3.25;;
7295;SDS011;40758;54.038;11.684;2023-06-10T11:07:32;5.43;;;3.40;;
7295;SDS011;40758;54.038;11.684;2023-06-10T11:13:06;7.38;;;2.55;;
7295;SDS011;40758;54.038;11.684;2023-06-10T11:15:27;9.88;;;3.45;;
7295;SDS011;40758;54.038;11.684;2023-06-10T11:18:14;10.02;;;3.17;;
7295;SDS011;40758;54.038;11.684;2023-06-10T11:26:10;6.55;;;2.80;;
7295;SDS011;40758;54.038;11.684;2023-06-10T11:31:26;5.85;;;2.30;;
7295;SDS011;40758;54.038;11.684;2023-06-10T11:33:54;6.35;;;2.67;;
7295;SDS011;40758;54.038;11.684;2023-06-10T11:36:22;7.13;;;2.78;;
7295;SDS011;40758;54.038;11.684;2023-06-10T11:38:50;8.68;;;2.22;;
7295;SDS011;40758;54.038;11.684;2023-06-10T11:41:21;7.05;;;2.38;;
7295;SDS011;40758;54.038;11.684;2023-06-10T11:43:52;5.68;;;2.05;;
7295;SDS011;40758;54.038;11.684;2023-06-10T11:46:20;6.88;;;2.90;;
7295;SDS011;40758;54.038;11.684;2023-06-10T11:48:51;7.47;;;3.05;;
7295;SDS011;40758;54.038;11.684;2023-06-10T11:51:18;8.75;;;2.67;;
7295;SDS011;40758;54.038;11.684;2023-06-10T11:53:46;4.25;;;1.98;;
7295;SDS011;40758;54.038;11.684;2023-06-10T11:56:13;7.10;;;1.65;;
7295;SDS011;40758;54.038;11.684;2023-06-10T11:58:45;4.75;;;1.88;;
7295;SDS011;40758;54.038;11.684;2023-06-10T12:01:19;9.45;;;2.22;;
7295;SDS011;40758;54.038;11.684;2023-06-10T12:06:25;6.22;;;1.95;;
7295;SDS011;40758;54.038;11.684;2023-06-10T12:08:53;7.43;;;2.17;;
7295;SDS011;40758;54.038;11.684;2023-06-10T12:11:33;5.93;;;2.08;;
7295;SDS011;40758;54.038;11.684;2023-06-10T12:14:00;5.80;;;2.42;;
7295;SDS011;40758;54.038;11.684;2023-06-10T12:16:27;5.00;;;3.25;;
7295;SDS011;40758;54.038;11.684;2023-06-10T12:19:00;6.43;;;2.30;;
7295;SDS011;40758;54.038;11.684;2023-06-10T12:21:28;5.68;;;2.92;;
7295;SDS011;40758;54.038;11.684;2023-06-10T12:24:08;5.60;;;2.70;;
7295;SDS011;40758;54.038;11.684;2023-06-10T12:26:36;6.88;;;2.17;;
7295;SDS011;40758;54.038;11.684;2023-06-10T12:32:07;8.52;;;2.35;;
7295;SDS011;40758;54.038;11.684;2023-06-10T12:34:40;7.22;;;3.00;;
7295;SDS011;40758;54.038;11.684;2023-06-10T12:37:11;6.18;;;2.17;;
7295;SDS011;40758;54.038;11.684;2023-06-10T12:39:43;5.55;;;2.85;;
7295;SDS011;40758;54.038;11.684;2023-06-10T12:42:21;5.95;;;2.47;;
7295;SDS011;40758;54.038;11.684;2023-06-10T12:44:53;5.70;;;2.65;;
7295;SDS011;40758;54.038;11.684;2023-06-10T12:47:21;4.97;;;2.28;;
7295;SDS011;40758;54.038;11.684;2023-06-10T12:49:58;6.28;;;2.42;;
7295;SDS011;40758;54.038;11.684;2023-06-10T12:52:25;7.60;;;3.25;;
7295;SDS011;40758;54.038;11.684;2023-06-10T12:54:55;5.38;;;2.15;;
7295;SDS011;40758;54.038;11.684;2023-06-10T12:57:22;6.00;;;2.95;;
7295;SDS011;40758;54.038;11.684;2023-06-10T12:59:49;5.60;;;2.92;;
7295;SDS011;40758;54.038;11.684;2023-06-10T13:02:19;7.82;;;2.55;;
7295;SDS011;40758;54.038;11.684;2023-06-10T13:04:46;6.05;;;2.53;;
7295;SDS011;40758;54.038;11.684;2023-06-10T13:07:14;6.00;;;2.47;;
7295;SDS011;40758;54.038;11.684;2023-06-10T13:09:42;5.13;;;3.03;;
7295;SDS011;40758;54.038;11.684;2023-06-10T13:14:42;5.05;;;3.20;;
7295;SDS011;40758;54.038;11.684;2023-06-10T13:17:08;7.60;;;3.97;;
7295;SDS011;40758;54.038;11.684;2023-06-10T13:19:35;7.10;;;1.90;;
7295;SDS011;40758;54.038;11.684;2023-06-10T13:24:29;5.20;;;2.53;;
7295;SDS011;40758;54.038;11.684;2023-06-10T13:26:57;5.80;;;3.65;;
7295;SDS011;40758;54.038;11.684;2023-06-10T13:29:23;5.07;;;3.13;;
7295;SDS011;40758;54.038;11.684;2023-06-10T13:31:50;6.25;;;3.38;;
7295;SDS011;40758;54.038;11.684;2023-06-10T13:34:17;6.10;;;2.90;;
7295;SDS011;40758;54.038;11.684;2023-06-10T13:36:44;4.60;;;2.60;;
7295;SDS011;40758;54.038;11.684;2023-06-10T13:39:10;6.03;;;3.00;;
7295;SDS011;40758;54.038;11.684;2023-06-10T13:41:37;6.55;;;3.35;;
7295;SDS011;40758;54.038;11.684;2023-06-10T13:44:04;6.38;;;3.42;;
7295;SDS011;40758;54.038;11.684;2023-06-10T13:46:30;5.78;;;3.38;;
7295;SDS011;40758;54.038;11.684;2023-06-10T13:48:57;4.90;;;3.28;;
7295;SDS011;40758;54.038;11.684;2023-06-10T13:51:24;6.97;;;3.55;;
7295;SDS011;40758;54.038;11.684;2023-06-10T13:53:51;5.85;;;3.10;;
7295;SDS011;40758;54.038;11.684;2023-06-10T13:56:18;5.15;;;2.95;;
7295;SDS011;40758;54.038;11.684;2023-06-10T13:58:45;5.28;;;3.10;;
7295;SDS011;40758;54.038;11.684;2023-06-10T14:01:12;6.97;;;2.83;;
7295;SDS011;40758;54.038;11.684;2023-06-10T14:03:38;5.15;;;3.60;;
7295;SDS011;40758;54.038;11.684;2023-06-10T14:06:05;5.25;;;3.03;;
7295;SDS011;40758;54.038;11.684;2023-06-10T14:08:33;5.78;;;2.95;;
7295;SDS011;40758;54.038;11.684;2023-06-10T14:11:00;6.50;;;3.17;;
7295;SDS011;40758;54.038;11.684;2023-06-10T14:13:26;5.70;;;2.85;;
7295;SDS011;40758;54.038;11.684;2023-06-10T14:15:53;5.93;;;2.42;;
7295;SDS011;40758;54.038;11.684;2023-06-10T14:18:20;5.38;;;2.97;;
7295;SDS011;40758;54.038;11.684;2023-06-10T14:20:46;6.43;;;3.38;;
7295;SDS011;40758;54.038;11.684;2023-06-10T14:23:13;4.88;;;2.65;;
7295;SDS011;40758;54.038;11.684;2023-06-10T14:25:40;5.25;;;2.92;;
7295;SDS011;40758;54.038;11.684;2023-06-10T14:28:06;7.57;;;2.65;;
7295;SDS011;40758;54.038;11.684;2023-06-10T14:30:33;5.25;;;2.55;;
7295;SDS011;40758;54.038;11.684;2023-06-10T14:33:00;4.22;;;2.85;;
7295;SDS011;40758;54.038;11.684;2023-06-10T14:35:27;4.97;;;2.60;;
7295;SDS011;40758;54.038;11.684;2023-06-10T14:37:53;5.68;;;2.67;;
7295;SDS011;40758;54.038;11.684;2023-06-10T14:40:20;5.70;;;3.10;;
7295;SDS011;40758;54.038;11.684;2023-06-10T14:42:49;4.03;;;2.55;;
7295;SDS011;40758;54.038;11.684;2023-06-10T14:45:15;5.50;;;2.83;;
7295;SDS011;40758;54.038;11.684;2023-06-10T14:47:42;6.63;;;3.40;;
7295;SDS011;40758;54.038;11.684;2023-06-10T14:50:09;6.55;;;2.67;;
7295;SDS011;40758;54.038;11.684;2023-06-10T14:52:36;6.57;;;3.40;;
7295;SDS011;40758;54.038;11.684;2023-06-10T14:55:03;4.72;;;2.53;;
7295;SDS011;40758;54.038;11.684;2023-06-10T14:57:30;4.40;;;2.22;;
7295;SDS011;40758;54.038;11.684;2023-06-10T15:00:01;4.53;;;2.78;;
7295;SDS011;40758;54.038;11.684;2023-06-10T15:02:28;5.78;;;2.78;;
7295;SDS011;40758;54.038;11.684;2023-06-10T15:04:54;8.32;;;2.53;;
7295;SDS011;40758;54.038;11.684;2023-06-10T15:07:21;5.60;;;2.55;;
7295;SDS011;40758;54.038;11.684;2023-06-10T15:09:48;5.65;;;2.83;;
7295;SDS011;40758;54.038;11.684;2023-06-10T15:12:14;5.57;;;2.42;;
7295;SDS011;40758;54.038;11.684;2023-06-10T15:14:41;5.85;;;3.67;;
7295;SDS011;40758;54.038;11.684;2023-06-10T15:17:08;5.32;;;2.55;;
7295;SDS011;40758;54.038;11.684;2023-06-10T15:19:34;4.75;;;2.50;;
7295;SDS011;40758;54.038;11.684;2023-06-10T15:22:01;4.72;;;2.22;;
7295;SDS011;40758;54.038;11.684;2023-06-10T15:24:28;5.68;;;2.92;;
7295;SDS011;40758;54.038;11.684;2023-06-10T15:26:55;5.00;;;2.70;;
7295;SDS011;40758;54.038;11.684;2023-06-10T15:29:22;8.38;;;3.08;;
7295;SDS011;40758;54.038;11.684;2023-06-10T15:31:49;5.78;;;2.97;;
7295;SDS011;40758;54.038;11.684;2023-06-10T15:34:16;6.47;;;2.80;;
7295;SDS011;40758;54.038;11.684;2023-06-10T15:36:42;6.10;;;2.63;;